Time;durP1;ratioP1;P1;durP2;ratioP2;P2;SDS_P1;SDS_P2;PMS_P1;PMS_P2;Temp;Humidity;BMP_temperature;BMP_pressure;BME280_temperature;BME280_humidity;BME280_pressure;Samples;Min_cycle;Max_cycle;Signal;HPM_P1;HPM_P2
2023/03/09 00:07:13;;;;;;;61.33;31.02;;;;;;;3.27;77.39;97966.53;30615881;28;96671;-64
2023/03/09 00:22:13;;;;;;;45.35;22.83;;;;;;;3.29;77.28;97965.34;30614804;28;96591;-64
2023/03/09 00:37:14;;;;;;;34.25;20.25;;;;;;;3.42;77.79;97948.97;30613774;28;97062;-64
2023/03/09 00:52:14;;;;;;;29.88;18.40;;;;;;;3.45;78.02;97953.06;30612119;28;96844;-63
2023/03/09 01:07:15;;;;;;;31.75;17.55;;;;;;;3.43;77.71;97931.34;30612822;28;96756;-65
2023/03/09 01:22:16;;;;;;;32.03;19.52;;;;;;;3.41;77.95;97899.16;30632364;28;97214;-63
2023/03/09 01:37:16;;;;;;;31.05;18.38;;;;;;;3.34;77.93;97876.16;30630386;28;96689;-64
2023/03/09 01:52:24;;;;;;;30.08;18.48;;;;;;;3.33;78.25;97887.69;30627612;28;97441;-63
2023/03/09 02:07:28;;;;;;;40.42;23.25;;;;;;;3.31;78.42;97878.38;30628137;28;97383;-64
2023/03/09 02:22:28;;;;;;;35.50;20.60;;;;;;;3.37;78.37;97867.91;30625563;28;96657;-64
2023/03/09 02:37:36;;;;;;;38.15;20.48;;;;;;;3.35;78.26;97869.91;30624717;28;96694;-64
2023/03/09 02:52:36;;;;;;;34.05;19.80;;;;;;;3.29;78.48;97870.63;30623742;28;96641;-63
2023/03/09 03:07:37;;;;;;;42.08;20.25;;;;;;;3.28;78.15;97861.13;30622565;28;96927;-64
2023/03/09 03:22:38;;;;;;;44.08;21.50;;;;;;;3.19;78.31;97872.72;30620779;28;96625;-64
2023/03/09 03:37:38;;;;;;;48.90;22.48;;;;;;;3.20;78.63;97862.00;30617676;28;97456;-63
2023/03/09 03:52:39;;;;;;;45.58;23.30;;;;;;;3.14;78.88;97867.16;30615679;28;96797;-64
2023/03/09 04:07:39;;;;;;;37.90;18.98;;;;;;;3.10;78.55;97860.63;30615339;28;96662;-64
2023/03/09 04:22:41;;;;;;;41.78;21.27;;;;;;;3.01;78.43;97857.28;30614150;28;97898;-63
2023/03/09 04:37:43;;;;;;;42.15;21.30;;;;;;;2.98;78.97;97837.41;30612273;28;97161;-63
2023/03/09 04:52:43;;;;;;;43.30;21.88;;;;;;;3.01;79.03;97823.88;30609857;28;96887;-64
2023/03/09 05:07:44;;;;;;;42.42;21.67;;;;;;;3.08;79.20;97815.28;30608608;28;96722;-63
2023/03/09 05:22:44;;;;;;;37.67;19.90;;;;;;;3.08;79.00;97810.03;30605747;28;96618;-63
2023/03/09 05:37:45;;;;;;;33.88;18.52;;;;;;;3.06;78.99;97818.06;30605810;28;97033;-63
2023/03/09 05:52:45;;;;;;;38.45;18.10;;;;;;;3.10;79.41;97808.00;30603557;28;96650;-63
2023/03/09 06:07:46;;;;;;;29.10;14.73;;;;;;;3.02;79.25;97809.75;30624272;28;96629;-64
2023/03/09 06:22:47;;;;;;;27.92;14.57;;;;;;;2.97;79.08;97808.66;30623995;28;97300;-63
2023/03/09 06:37:47;;;;;;;23.38;12.05;;;;;;;2.94;79.14;97820.34;30621224;28;96635;-63
2023/03/09 06:52:47;;;;;;;24.80;12.45;;;;;;;2.91;79.04;97822.50;30618973;28;96662;-64
2023/03/09 07:07:48;;;;;;;18.70;10.63;;;;;;;2.91;78.86;97820.69;30618976;28;96802;-64
2023/03/09 07:22:48;;;;;;;16.58;9.70;;;;;;;3.08;78.77;97817.91;30618974;28;97171;-63
2023/03/09 07:37:49;;;;;;;15.52;9.32;;;;;;;3.09;78.23;97835.31;30616817;28;96748;-64
2023/03/09 07:52:50;;;;;;;12.80;7.55;;;;;;;3.20;78.35;97829.63;30612157;28;96696;-65
2023/03/09 08:07:51;;;;;;;12.38;7.35;;;;;;;3.43;78.12;97847.13;30613298;28;96605;-63
2023/03/09 08:22:51;;;;;;;14.23;6.13;;;;;;;3.38;77.85;97859.00;30611830;28;97188;-63
2023/03/09 08:37:52;;;;;;;9.88;5.68;;;;;;;3.41;78.06;97872.81;30611226;28;96782;-64
2023/03/09 08:52:52;;;;;;;10.85;5.80;;;;;;;3.28;77.61;97916.38;30607760;28;97207;-64
2023/03/09 09:07:53;;;;;;;8.82;5.53;;;;;;;3.49;78.02;97928.00;30609110;28;96681;-63
2023/03/09 09:22:53;;;;;;;10.20;5.93;;;;;;;3.75;77.45;97958.34;30608139;28;97704;-63
2023/03/09 09:37:54;;;;;;;11.30;6.90;;;;;;;4.07;77.01;97989.59;30620847;28;96691;-63
2023/03/09 09:53:34;;;;;;;10.85;6.75;;;;;;;4.22;76.63;97997.50;30627005;28;96757;-63
2023/03/09 10:08:40;;;;;;;11.40;7.13;;;;;;;4.23;76.24;98072.91;30624892;28;96710;-63
2023/03/09 10:23:43;;;;;;;10.48;7.13;;;;;;;4.09;76.25;98101.88;30622860;28;96619;-63
2023/03/09 10:38:44;;;;;;;10.97;6.63;;;;;;;4.19;76.30;98150.69;30622440;28;96669;-63
2023/03/09 10:53:46;;;;;;;11.73;7.20;;;;;;;4.22;75.84;98191.69;30622050;28;96869;-65
2023/03/09 11:08:59;;;;;;;12.05;7.63;;;;;;;4.28;76.24;98212.09;30619431;28;96663;-63
2023/03/09 11:24:02;;;;;;;11.68;6.93;;;;;;;4.45;76.09;98257.56;30617583;28;96803;-64
2023/03/09 11:39:04;;;;;;;10.23;6.82;;;;;;;4.57;76.04;98285.13;30615087;28;96649;-64
2023/03/09 11:54:14;;;;;;;11.85;6.10;;;;;;;4.77;75.90;98324.22;30613873;28;97381;-64
2023/03/09 12:09:25;;;;;;;12.85;7.85;;;;;;;4.72;74.90;98347.66;30613560;28;96668;-63
2023/03/09 12:24:25;;;;;;;8.73;6.47;;;;;;;4.85;75.51;98366.38;30610766;28;96681;-62
2023/03/09 12:39:33;;;;;;;9.43;6.25;;;;;;;4.89;74.83;98382.63;30611489;28;97376;-63
2023/03/09 12:54:33;;;;;;;10.65;7.10;;;;;;;4.78;74.67;98418.16;30610154;28;96746;-63
2023/03/09 13:09:40;;;;;;;14.63;8.90;;;;;;;4.67;74.64;98443.13;30619156;28;96652;-64
2023/03/09 13:24:42;;;;;;;14.48;8.15;;;;;;;4.84;74.35;98443.03;30629911;28;97424;-63
2023/03/09 13:40:05;;;;;;;12.35;8.10;;;;;;;5.03;74.35;98460.19;30628339;28;96747;-65
2023/03/09 13:55:16;;;;;;;18.15;8.23;;;;;;;5.61;73.61;98473.72;30625769;28;97054;-64
2023/03/09 14:10:37;;;;;;;13.55;7.10;;;;;;;5.85;73.09;98503.53;30620928;28;96750;-63
2023/03/09 14:25:40;;;;;;;12.27;7.47;;;;;;;6.44;72.20;98497.47;30617755;28;96996;-64
2023/03/09 14:40:41;;;;;;;13.43;8.65;;;;;;;6.59;71.03;98506.19;30621313;28;96559;-63
2023/03/09 14:55:41;;;;;;;11.30;7.50;;;;;;;7.94;69.12;98510.81;30621210;28;96730;-63
2023/03/09 15:10:42;;;;;;;11.57;7.53;;;;;;;8.05;68.53;98506.81;30619410;28;96699;-63
2023/03/09 15:25:43;;;;;;;13.60;8.43;;;;;;;7.36;67.64;98506.53;30617875;28;96871;-64
2023/03/09 15:40:44;;;;;;;13.03;7.70;;;;;;;6.80;67.65;98517.81;30615027;28;96683;-63
2023/03/09 15:55:44;;;;;;;11.55;8.32;;;;;;;5.95;68.49;98540.31;30614458;28;96648;-65
2023/03/09 16:10:45;;;;;;;14.73;9.23;;;;;;;5.38;68.57;98553.81;30614855;28;96762;-64
2023/03/09 16:25:53;;;;;;;14.05;8.90;;;;;;;4.93;69.35;98562.56;30611297;28;96705;-64
2023/03/09 16:40:53;;;;;;;12.85;9.02;;;;;;;4.32;69.79;98563.97;30610539;28;97426;-64
2023/03/09 16:56:07;;;;;;;18.10;9.85;;;;;;;4.09;70.76;98605.19;30609159;28;96744;-64
2023/03/09 17:11:13;;;;;;;18.47;11.27;;;;;;;3.99;71.20;98603.59;30607915;28;97384;-62
2023/03/09 17:26:13;;;;;;;15.40;10.38;;;;;;;3.91;71.87;98622.03;30605811;28;96740;-63
2023/03/09 17:41:14;;;;;;;16.92;10.30;;;;;;;3.82;71.88;98633.56;30605646;28;96535;-64
2023/03/09 17:56:16;;;;;;;21.55;12.02;;;;;;;3.76;72.04;98618.41;30614566;28;96711;-65
2023/03/09 18:11:20;;;;;;;20.55;12.02;;;;;;;3.69;72.57;98639.31;30625417;28;96654;-65
2023/03/09 18:26:25;;;;;;;;;;;;;;;3.54;72.78;98647.88;30623765;28;96648;-65
2023/03/09 18:41:25;;;;;;;27.43;15.77;;;;;;;3.54;73.00;98652.28;30623096;28;96675;-64
2023/03/09 18:56:26;;;;;;;29.67;16.98;;;;;;;3.56;73.15;98631.91;30620930;28;96895;-63
2023/03/09 19:11:27;;;;;;;30.02;17.30;;;;;;;3.54;73.93;98613.66;30618185;28;97638;-64
2023/03/09 19:26:28;;;;;;;31.20;17.92;;;;;;;3.58;73.97;98606.22;30618828;28;96817;-64
2023/03/09 19:41:31;;;;;;;30.05;17.95;;;;;;;3.54;74.28;98594.38;30617899;28;97094;-64
2023/03/09 19:56:37;;;;;;;36.13;19.00;;;;;;;3.45;74.92;98598.00;30616593;28;97272;-64
2023/03/09 20:11:38;;;;;;;41.08;19.88;;;;;;;3.41;75.31;98594.06;30615552;28;96792;-63
2023/03/09 20:26:42;;;;;;;30.98;17.42;;;;;;;3.46;75.51;98545.19;30613625;28;97111;-64
2023/03/09 20:41:43;;;;;;;35.92;18.50;;;;;;;3.36;75.97;98539.25;30610999;28;97434;-65
2023/03/09 20:56:43;;;;;;;34.95;19.60;;;;;;;3.53;76.19;98519.03;30609203;28;96580;-63
2023/03/09 21:11:44;;;;;;;33.95;19.48;;;;;;;3.56;76.29;98518.69;30608411;28;97151;-61
2023/03/09 21:26:44;;;;;;;40.05;22.25;;;;;;;3.59;76.13;98502.53;30611924;28;97154;-63
2023/03/09 21:41:44;;;;;;;39.33;21.80;;;;;;;3.51;76.48;98498.13;30629417;28;96604;-64
2023/03/09 21:56:48;;;;;;;41.00;22.75;;;;;;;3.43;76.76;98469.19;30626508;28;97434;-65
2023/03/09 22:11:49;;;;;;;39.50;25.30;;;;;;;3.43;76.96;98442.00;30627236;28;96818;-64
2023/03/09 22:26:49;;;;;;;33.70;21.90;;;;;;;3.47;77.87;98441.53;30625185;28;96635;-62
2023/03/09 22:41:50;;;;;;;35.00;22.55;;;;;;;3.68;77.89;98425.19;30623407;28;96721;-64
2023/03/09 22:56:50;;;;;;;47.67;25.77;;;;;;;3.80;77.42;98383.50;30623814;28;97132;-64
2023/03/09 23:11:52;;;;;;;39.50;23.20;;;;;;;3.70;77.78;98365.28;30622742;28;97059;-64
2023/03/09 23:26:53;;;;;;;38.55;22.33;;;;;;;3.86;77.96;98358.28;30620591;28;97253;-64
2023/03/09 23:41:54;;;;;;;38.72;23.27;;;;;;;3.90;78.27;98351.69;30619260;28;97257;-63
2023/03/09 23:56:55;;;;;;;42.13;23.58;;;;;;;3.60;77.20;98351.47;30618337;28;96588;-63
